Dara Desgagnes — VCBW — position and weather

sailwx.info

Track history (hours):
 
Tides and Currents Weather Stations Pressure Air Temp Water Temp Dewpoint Dewpoint Depression Visibility Wind Speed Wind Dir Waves Ship Positions

Dara Desgagnes

Last reported at 2017-Nov-22 12:00 UTC. Time now 2017-Nov-22 13:11 UTC.
Position N 48°30' W 068°30'.

Length 124 m; draft 5.3 m.

Type: Ship. MMSI: 316095000.

Barometer 1012.9 mb
Air temperature 2.0 ° C
Dewpoint -2.3 ° C

Date/timePositionNaut miles runAvg speedWind from/ knotsBaromVisibWave heightAir tempDewpointWater temp
2017-Nov-22 12:00N 48°30' W 068°30'0 0.0 1012.9 2.0-2.3
2017-Nov-22 11:00N 48°30' W 068°30'0 0.0 1012.3 1.8-2.5
2017-Nov-22 10:00N 48°30' W 068°30'0 0.0 1011.9 1.5-2.0
2017-Nov-22 09:00N 48°30' W 068°30'0 0.0 1011.2 1.5-2.8
2017-Nov-22 08:00N 48°30' W 068°30'0 0.0 1011.0 1.6-3.1
2017-Nov-22 07:00N 48°30' W 068°30'0 0.0 1011.0 1.6-3.1
2017-Nov-22 06:00N 48°30' W 068°30'0 0.0 1010.4 1.5-3.3
2017-Nov-22 05:00N 48°30' W 068°30'0 0.0 1009.4 2.1-3.5
2017-Nov-22 04:00N 48°30' W 068°30'0 0.0 1010.3 1.7-3.7
2017-Nov-22 03:00N 48°30' W 068°30'0 0.0 1010.7 1.0-4.4
2017-Nov-22 02:00N 48°30' W 068°30'0 0.0 1010.4 0.1-5.1
2017-Nov-22 01:00N 48°30' W 068°30'0 0.0 1010.6 -0.4-6.0
2017-Nov-22 00:00N 48°30' W 068°30'0 0.0 1010.7 -1.0-6.5
2017-Nov-21 23:00N 48°30' W 068°30'0 0.0 1010.2 -1.2-6.2 5.6
2017-Nov-21 22:00N 48°30' W 068°30'0 0.0 1009.8 -0.6-6.1 4.8
2017-Nov-21 21:00N 48°30' W 068°30'0 0.0 1009.8 -1.3-6.7 4.5
2017-Nov-21 20:00N 48°30' W 068°30'4 4.0 320 / 41010.1 -1.1-6.8 5.0
2017-Nov-21 19:00N 48°30' W 068°36'0 0.0 1010.4 -3.1-8.7
2017-Nov-21 18:00N 48°30' W 068°36'0 0.0 160 / 11011.5 -4.6-10.2
2017-Nov-21 17:00N 48°30' W 068°36'0 0.0 180 / 11012.4 -5.5-11.0
2017-Nov-21 16:00N 48°30' W 068°36'0 0.0 190 / 11013.3 -6.2-11.4
2017-Nov-21 15:00N 48°30' W 068°36'0 0.0 180 / 11014.8 -6.7-11.6 5.1
2017-Nov-21 14:00N 48°30' W 068°36'0 0.0 190 / 11014.5 -8.0-12.2 5.2
2017-Nov-21 13:00N 48°30' W 068°36'0 0.0 150 / 11014.3 -6.5-10.9 5.5
2017-Nov-21 12:00N 48°30' W 068°36'4 4.0 230 / 11014.1 -6.7-11.7 5.4
2017-Nov-21 11:00N 48°30' W 068°30'0 0.0 260 / 11014.0 -7.2-13.3
2017-Nov-21 10:00N 48°30' W 068°30'0 0.0 260 / 11013.4 -7.4-13.4
2017-Nov-21 09:00N 48°30' W 068°30'0 0.0 270 / 11012.7 -7.4-13.4
2017-Nov-21 08:00N 48°30' W 068°30'0 0.0 1012.7 -7.5-13.4
2017-Nov-21 07:00N 48°30' W 068°30'0 0.0 1012.0 -7.3-13.1
2017-Nov-21 06:00N 48°30' W 068°30'0 0.0 260 / 11011.5 -7.3-13.3
2017-Nov-21 05:00N 48°30' W 068°30'0 0.0 270 / 11010.6 -7.2-13.2
2017-Nov-21 04:00N 48°30' W 068°30'0 0.0 260 / 11009.7 -7.1-13.0
2017-Nov-21 03:00N 48°30' W 068°30'0 0.0 270 / 11008.8 -6.8-12.3
2017-Nov-21 02:00N 48°30' W 068°30'0 0.0 270 / 11008.2 -6.5-12.0
2017-Nov-21 01:00N 48°30' W 068°30'0 0.0 260 / 11007.9 -6.6-12.2
2017-Nov-21 00:00N 48°30' W 068°30'0 0.0 260 / 21006.5 -6.6-11.8
2017-Nov-20 23:00N 48°30' W 068°30'0 0.0 260 / 21005.2 -6.4-11.8
2017-Nov-20 22:00N 48°30' W 068°30'0 0.0 260 / 21004.0 -6.3-11.1
2017-Nov-20 21:00N 48°30' W 068°30'0 0.0 250 / 31002.3 -6.0-10.1
2017-Nov-20 20:00N 48°30' W 068°30'0 0.0 250 / 21001.3 -5.9-9.8
2017-Nov-20 19:00N 48°30' W 068°30'0 0.0 240 / 21000.6 -6.0-9.6
2017-Nov-20 18:00N 48°30' W 068°30'0 0.0 250 / 31000.3 -6.1-10.4
2017-Nov-20 17:00N 48°30' W 068°30'0 0.0 250 / 2999.6 -6.2-9.3 5.8
2017-Nov-20 16:00N 48°30' W 068°30'0 0.0 250 / 2999.5 -5.5-9.5
2017-Nov-20 15:00N 48°30' W 068°30'0 0.0 250 / 2998.7 -5.6-10.4
2017-Nov-20 14:00N 48°30' W 068°30'0 0.0 250 / 2998.3 -5.4-10.5
2017-Nov-20 13:00N 48°30' W 068°30'0 0.0 240 / 1998.2 -5.2-10.4
2017-Nov-20 12:00N 48°30' W 068°30'0 0.0 240 / 1997.1 -5.0-10.1
2017-Nov-20 11:00N 48°30' W 068°30'0 0.0 250 / 1995.5 -4.8-9.6
2017-Nov-20 10:00N 48°30' W 068°30'0 0.0 240 / 2993.8 -4.4-8.7
2017-Nov-20 09:00N 48°30' W 068°30'0 0.0 240 / 3992.3 -3.7-8.1
2017-Nov-20 08:00N 48°30' W 068°30'0 0.0 240 / 3991.4 -2.9-7.0
2017-Nov-20 07:00N 48°30' W 068°30'0 0.0 250 / 2990.4 -1.2-6.5
2017-Nov-20 06:00N 48°30' W 068°30'0 0.0 240 / 3989.0 -1.3-4.8
2017-Nov-20 05:00N 48°30' W 068°30'0 0.0 240 / 3987.8 -0.8-4.6 5.8
2017-Nov-20 04:00N 48°30' W 068°30'0 0.0 220 / 2986.7 -0.2-3.8
2017-Nov-20 03:00N 48°30' W 068°30'7711.0 210 / 2985.5 0.5-2.7 5.8
2017-Nov-19 20:00N 47°42' W 070°00'1414.5 230 / 11982.9 1.5 0.8 6.5
2017-Nov-19 19:00N 47°30' W 070°12'1010.1 220 / 9982.3 2.3 1.3 6.8
2017-Nov-19 18:00N 47°24' W 070°24'7 7.2 250 / 10982.4 1.7 1.3 7.4
2017-Nov-19 17:00N 47°18' W 070°30'1514.5 210 / 11982.7 2.9 2.7 7.6
2017-Nov-19 16:00N 47°06' W 070°42'1514.5 210 / 11982.9 2.2 2.0 7.7
2017-Nov-19 15:00N 46°54' W 070°54'1413.7 230 / 11983.3 2.1 1.9 7.8
2017-Nov-19 14:00N 46°48' W 071°12'0 0.0 200 / 6985.0 2.1 0.7 7.7
2017-Nov-19 13:00N 46°48' W 071°12'0 0.0 986.2 2.9 0.7
2017-Nov-19 12:00N 46°48' W 071°12'0 0.0 987.5 3.1 0.6
2017-Nov-19 11:00N 46°48' W 071°12'0 0.0 988.3 2.4 0.1
2017-Nov-19 10:00N 46°48' W 071°12'0 0.0 989.9 2.7 0.3
2017-Nov-19 09:00N 46°48' W 071°12'0 0.0 991.3 1.6-0.1
2017-Nov-19 08:00N 46°48' W 071°12'0 0.0 992.8 1.5-0.8
2017-Nov-19 07:00N 46°48' W 071°12'0 0.0 995.1 1.4-2.0
2017-Nov-19 06:00N 46°48' W 071°12'0 0.0 996.4 3.1-2.4
2017-Nov-19 05:00N 46°48' W 071°12'0 0.0 997.8 1.8-2.4
2017-Nov-19 04:00N 46°48' W 071°12'0 0.0 999.1 2.8-2.2
2017-Nov-19 03:00N 46°48' W 071°12'0 0.0 1000.6 2.3-2.6
2017-Nov-19 02:00N 46°48' W 071°12'0 0.0 1001.6 2.5-2.7
2017-Nov-19 01:00N 46°48' W 071°12'0 0.0 1002.6 3.1-2.8
2017-Nov-19 00:00N 46°48' W 071°12'0 0.0 1003.1 1.8-3.2
2017-Nov-18 23:00N 46°48' W 071°12'0 0.0 1003.5 0.1-4.2
2017-Nov-18 22:00N 46°48' W 071°12'0 0.0 1004.5 0.2-3.6
2017-Nov-18 21:00N 46°48' W 071°12'0 0.0 1004.9 -1.7-6.7
2017-Nov-18 20:00N 46°48' W 071°12'0 0.0 1006.4 -3.0-7.6
2017-Nov-18 19:00N 46°48' W 071°12'0 0.0 1007.9 -2.7-8.6
2017-Nov-18 18:00N 46°48' W 071°12'0 0.0 1009.0 -4.1-9.0 8.1
2017-Nov-18 17:00N 46°48' W 071°12'0 0.0 1010.1 -3.8-8.5 7.9
2017-Nov-18 16:00N 46°48' W 071°12'4 4.1 020 / 51011.5 -5.7-8.9 7.7
2017-Nov-18 15:00N 46°48' W 071°06'1010.2 080 / 71012.5 -6.4-9.3 7.6
2017-Nov-18 14:00N 46°54' W 070°54'0 0.0 200 / 11013.5 -7.0-9.2
2017-Nov-18 13:00N 46°54' W 070°54'0 0.0 1014.9 -7.0-8.9
2017-Nov-18 12:00N 46°54' W 070°54'0 0.0 1014.5 -7.5-9.3
2017-Nov-18 11:00N 46°54' W 070°54'0 0.0 1013.8 -7.2-9.0 7.8
2017-Nov-18 10:00N 46°54' W 070°54'0 0.0 1013.7 -7.1-9.1 8.2
2017-Nov-18 09:00N 46°54' W 070°54'7 7.3 070 / 91012.9 -6.7-9.1 7.8
2017-Nov-18 08:00N 47°00' W 070°48'1514.5 030 / 131012.0 -5.0-8.7 7.9
2017-Nov-18 07:00N 47°12' W 070°36'1414.5 030 / 141012.3 -2.7-7.9 7.8
2017-Nov-18 06:00N 47°24' W 070°24'1414.5 070 / 131012.1 -4.6-10.9 7.1
2017-Nov-18 05:00N 47°36' W 070°12'1413.5 040 / 121010.7 -4.9-10.3 6.1
2017-Nov-18 04:00N 47°42' W 069°54'1312.7 040 / 121012.6 -3.8-10.0 6.0
2017-Nov-18 03:00N 47°54' W 069°48'1010.0 030 / 111011.9 -4.8-10.1 5.9
2017-Nov-18 02:00N 48°00' W 069°36'1312.7 030 / 81007.4 -5.0-8.9 5.2
2017-Nov-18 01:00N 48°12' W 069°30'7 7.2 030 / 131009.1 -4.9-8.5 4.8
2017-Nov-18 00:00N 48°18' W 069°24'1716.9 050 / 111008.7 -3.1-7.8 4.9
2017-Nov-17 23:00N 48°30' W 069°06'1010.0 050 / 121006.1 -2.4-6.4 5.1
2017-Nov-17 22:00N 48°36' W 068°54'1313.3 050 / 101004.0 -2.0-5.2 5.2
2017-Nov-17 21:00N 48°42' W 068°36'1313.3 050 / 121001.6 -0.9-4.0 5.4
2017-Nov-17 20:00N 48°48' W 068°18'10 9.9 060 / 121000.3 -0.2-1.6 5.1
2017-Nov-17 19:00N 48°54' W 068°06'1313.3 050 / 131002.0 1.7 1.6 5.4
2017-Nov-17 18:00N 49°00' W 067°48'1716.8 060 / 131002.0 0.7 0.6 5.1
2017-Nov-17 17:00N 49°12' W 067°30'1211.8 050 / 131001.7 0.5 0.4 5.1
2017-Nov-17 16:00N 49°12' W 067°12'1313.2 070 / 131001.5 0.5 0.3 5.0
2017-Nov-17 15:00N 49°18' W 066°54'1716.7 070 / 141002.0 0.7 0.4 5.2
2017-Nov-17 14:00N 49°24' W 066°30'1211.7 070 / 131002.3 1.5 0.5 5.6
2017-Nov-17 13:00N 49°24' W 066°12'1313.2 080 / 141002.6 7.2 4.0 5.5
2017-Nov-17 12:00N 49°30' W 065°54'1716.7 080 / 141002.8 3.5 3.2 6.4
2017-Nov-17 11:00N 49°24' W 065°30'1211.7 090 / 141003.3 3.2 3.0 6.1
2017-Nov-17 10:00N 49°24' W 065°12'1313.2 110 / 131003.5 3.3 2.9 6.1
2017-Nov-17 09:00N 49°18' W 064°54'10 9.9 120 / 91003.8 3.7 2.7 6.2
2017-Nov-17 08:00N 49°12' W 064°42'8 7.8 110 / 101005.6 9.7 4.9 6.5
2017-Nov-17 07:00N 49°12' W 064°30'1312.6 130 / 101006.6 6.9 5.1 6.5
2017-Nov-17 06:00N 49°00' W 064°24'10 9.9 140 / 101008.0 8.1 5.0 6.7
2017-Nov-17 05:00N 48°54' W 064°12'18 9.2 140 / 101008.5 4.1 3.6 6.9
2017-Nov-17 03:00N 48°36' W 064°06'6 6.0 170 / 101010.3 3.9 3.4 6.8
2017-Nov-17 02:00N 48°30' W 064°06'1212.0 190 / 91011.1 4.3 3.2 7.5
2017-Nov-17 01:00N 48°18' W 064°06'7 7.2 190 / 101011.7 4.5 3.1 7.7
2017-Nov-17 00:00N 48°12' W 064°12'1818.4 190 / 101012.1 4.7 3.3 8.0
2017-Nov-16 23:00N 47°54' W 064°18'7 7.2 200 / 101011.9 5.2 3.4 8.5
2017-Nov-16 22:00N 47°48' W 064°24'6 6.0 200 / 101013.4 5.1 3.2 9.0
2017-Nov-16 21:00N 47°42' W 064°24'7 7.2 200 / 91014.1 5.2 2.7 9.4
2017-Nov-16 20:00N 47°36' W 064°30'1312.7 200 / 101014.4 4.8 2.1 9.5
2017-Nov-16 19:00N 47°24' W 064°36'7 7.2 200 / 101014.7 4.8 1.7 9.6
2017-Nov-16 18:00N 47°18' W 064°42'1514.5 200 / 101015.3 4.6 1.7 9.5
2017-Nov-16 17:00N 47°06' W 064°54'4 4.1 230 / 111014.8 3.9 1.0 7.6
2017-Nov-16 16:00N 47°06' W 065°00'1212.3 230 / 91016.5 3.3 0.4 6.3
2017-Nov-16 15:00N 47°06' W 065°18'1010.1 220 / 101018.1 1.8-1.2 6.4
2017-Nov-16 14:00N 47°00' W 065°30'0 0.0 220 / 51019.1 0.2-2.2 5.4
2017-Nov-16 13:00N 47°00' W 065°30'0 0.0 1019.9 -0.4-3.0
2017-Nov-16 12:00N 47°00' W 065°30'0 0.0 1020.3 -0.7-3.4
2017-Nov-16 11:00N 47°00' W 065°30'0 0.0 1020.4 -1.1-3.8
2017-Nov-16 10:00N 47°00' W 065°30'0 0.0 1020.6 -1.7-4.2
2017-Nov-16 09:00N 47°00' W 065°30'0 0.0 1021.6 -2.1-3.9
2017-Nov-16 08:00N 47°00' W 065°30'0 0.0 1022.3 -2.2-3.9
2017-Nov-16 07:00N 47°00' W 065°30'0 0.0 1022.5 -2.0-3.7
2017-Nov-16 06:00N 47°00' W 065°30'0 0.0 1023.0 -3.0-4.2
2017-Nov-16 05:00N 47°00' W 065°30'0 0.0 1022.9 -3.9-5.2
2017-Nov-16 04:00N 47°00' W 065°30'0 0.0 1023.2 -3.5-5.5
2017-Nov-16 03:00N 47°00' W 065°30'0 0.0 1024.6 -3.6-5.7
2017-Nov-16 02:00N 47°00' W 065°30'0 0.0 1025.1 -2.7-5.5
2017-Nov-16 01:00N 47°00' W 065°30'0 0.0 1025.5 -2.1-5.8
2017-Nov-16 00:00N 47°00' W 065°30'0 0.0 1025.5 -1.1-5.0
2017-Nov-15 23:00N 47°00' W 065°30'0 0.0 1024.9 -1.0-5.9
2017-Nov-15 22:00N 47°00' W 065°30'0 0.0 1024.7 -0.3-6.0 6.0
2017-Nov-15 21:00N 47°00' W 065°30'0 0.0 1024.7 0.3-6.3 6.1
2017-Nov-15 20:00N 47°00' W 065°30'0 0.0 1025.0 2.1-6.5 6.5
2017-Nov-15 19:00N 47°00' W 065°30'1010.1 060 / 71025.4 1.0-7.1 6.2
2017-Nov-15 18:00N 47°06' W 065°18'1212.3 060 / 101025.9 -0.2-6.6 6.9
2017-Nov-15 17:00N 47°06' W 065°00'4 4.1 130 / 101026.2 -0.5-5.9 7.6
2017-Nov-15 16:00N 47°06' W 064°54'0 0.0 1027.1 -0.7-5.0
2017-Nov-15 15:00N 47°06' W 064°54'0 0.0 1027.8 -0.6-4.9
2017-Nov-15 14:00N 47°06' W 064°54'0 0.0 1027.6 -1.0-4.6
2017-Nov-15 13:00N 47°06' W 064°54'0 0.0 1027.4 -1.0-4.8
2017-Nov-15 12:00N 47°06' W 064°54'0 0.0 1027.2 -0.7-3.9
2017-Nov-15 11:00N 47°06' W 064°54'0 0.0 1026.8 -0.4-4.0
2017-Nov-15 10:00N 47°06' W 064°54'0 0.0 1026.8 -0.2-3.7
2017-Nov-15 09:00N 47°06' W 064°54'0 0.0 1026.6 0.5-4.9
2017-Nov-15 08:00N 47°06' W 064°54'0 0.0 1026.7 0.6-5.2
2017-Nov-15 07:00N 47°06' W 064°54'0 0.0 1026.9 0.7-4.8
2017-Nov-15 06:00N 47°06' W 064°54'0 0.0 1026.7 0.7-5.3
2017-Nov-15 05:00N 47°06' W 064°54'0 0.0 1027.1 0.7-5.4
2017-Nov-15 04:00N 47°06' W 064°54'0 0.0 1027.3 0.8-5.5
2017-Nov-15 03:00N 47°06' W 064°54'0 0.0 1027.4 0.9-5.0
2017-Nov-15 02:00N 47°06' W 064°54'0 0.0 1027.8 0.8-5.3
2017-Nov-15 01:00N 47°06' W 064°54'0 0.0 1027.4 0.7-5.3
2017-Nov-15 00:00N 47°06' W 064°54'0 0.0 1027.3 0.5-5.6
2017-Nov-14 23:00N 47°06' W 064°54'0 0.0 1027.3 0.5-5.8
2017-Nov-14 22:00N 47°06' W 064°54'0 0.0 1027.5 0.4-5.8
2017-Nov-14 21:00N 47°06' W 064°54'0 0.0 1027.7 0.3-5.7
2017-Nov-14 20:00N 47°06' W 064°54'0 0.0 1027.6 0.3-5.7
2017-Nov-14 19:00N 47°06' W 064°54'0 0.0 1027.5 0.6-5.0
2017-Nov-14 18:00N 47°06' W 064°54'0 0.0 1027.4 0.5-5.5
2017-Nov-14 17:00N 47°06' W 064°54'0 0.0 020 / 11027.4 1.2-4.0
2017-Nov-14 16:00N 47°06' W 064°54'0 0.0 1027.5 1.5-3.3
2017-Nov-14 15:00N 47°06' W 064°54'0 0.0 010 / 11027.5 1.7-2.7
2017-Nov-14 14:00N 47°06' W 064°54'0 0.0 020 / 11027.4 1.8-2.3
2017-Nov-14 13:00N 47°06' W 064°54'0 0.0 010 / 11026.8 1.9-1.5
2017-Nov-14 12:00N 47°06' W 064°54'0 0.0 010 / 11026.5 2.3-0.6
2017-Nov-14 11:00N 47°06' W 064°54'0 0.0 1026.6 2.2-0.7
2017-Nov-14 10:00N 47°06' W 064°54'0 0.0 1026.4 2.6-0.8
2017-Nov-14 09:00N 47°06' W 064°54'0 0.0 1026.1 2.0-2.0
2017-Nov-14 08:00N 47°06' W 064°54'0 0.0 1025.8 1.5-3.4
2017-Nov-14 07:00N 47°06' W 064°54'0 0.0 1025.8 2.0-4.3
2017-Nov-14 06:00N 47°06' W 064°54'0 0.0 1025.7 2.7-4.5
2017-Nov-14 05:00N 47°06' W 064°54'0 0.0 1026.5 2.6-5.3
2017-Nov-14 04:00N 47°06' W 064°54'0 0.0 1027.0 2.7-6.5
2017-Nov-14 03:00N 47°06' W 064°54'0 0.0 1027.2 2.5-6.6
2017-Nov-14 02:00N 47°06' W 064°54'0 0.0 1027.2 2.2-4.4
2017-Nov-14 01:00N 47°06' W 064°54'0 0.0 1027.6 2.6-4.6
2017-Nov-14 00:00N 47°06' W 064°54'0 0.0 1028.0 2.8-6.7
2017-Nov-13 23:00N 47°06' W 064°54'0 0.0 1027.5 1.9-4.1
2017-Nov-13 22:00N 47°06' W 064°54'0 0.0 1028.3 1.7-5.0 8.7
2017-Nov-13 21:00N 47°06' W 064°54'0 0.0 1028.1 2.4-6.7 9.4
2017-Nov-13 20:00N 47°06' W 064°54'4 4.1 090 / 11028.2 1.9-6.3 8.5
2017-Nov-13 19:00N 47°06' W 064°48'1212.3 090 / 101028.1 1.7-7.610.4
2017-Nov-13 18:00N 47°06' W 064°30'1212.3 090 / 111028.4 1.3-8.810.6
2017-Nov-13 17:00N 47°06' W 064°12'1212.3 090 / 111028.8 1.2-6.810.1
2017-Nov-13 16:00N 47°06' W 063°54'1212.3 090 / 111029.5 1.8-6.310.4
2017-Nov-13 15:00N 47°06' W 063°36'1212.3 090 / 111030.2 2.7-5.8 9.9
2017-Nov-13 14:00N 47°06' W 063°18'1616.3 090 / 111030.3 2.3-6.510.6
2017-Nov-13 13:00N 47°06' W 062°54'8 8.2 090 / 111030.5 2.1-6.210.6
2017-Nov-13 12:00N 47°06' W 062°42'1212.3 090 / 111030.6 2.3-5.910.0
2017-Nov-13 11:00N 47°06' W 062°24'1212.3 090 / 111030.4 2.5-5.610.7
2017-Nov-13 10:00N 47°06' W 062°06'1616.3 090 / 121030.2 2.6-4.810.4
2017-Nov-13 09:00N 47°06' W 061°42'1212.3 090 / 111030.5 2.8-5.310.5
2017-Nov-13 08:00N 47°06' W 061°24'1212.3 090 / 121030.7 2.7-5.310.4
2017-Nov-13 07:00N 47°06' W 061°06'1212.3 090 / 111030.6 2.9-3.410.3
2017-Nov-13 06:00N 47°06' W 060°48'8 8.2 090 / 111030.5 3.2-2.310.9
2017-Nov-13 05:00N 47°06' W 060°36'1212.3 090 / 101030.5 3.5-2.212.5
2017-Nov-13 04:00N 47°06' W 060°18'1312.7 150 / 101031.3 3.0-0.611.8
2017-Nov-13 03:00N 46°54' W 060°12'1212.0 170 / 121031.5 2.9-1.811.2
2017-Nov-13 02:00N 46°42' W 060°12'1312.7 170 / 131031.8 2.7-2.611.1
2017-Nov-13 01:00N 46°30' W 060°06'1312.7 180 / 111031.8 2.4-2.911.4
2017-Nov-13 00:00N 46°18' W 060°12'1212.0 210 / 91031.8 1.7-3.211.1
2017-Nov-12 23:00N 46°06' W 060°12'0 0.0 240 / 11031.7 0.8-3.7
2017-Nov-12 22:00N 46°06' W 060°12'0 0.0 1031.9 1.5-3.2
2017-Nov-12 21:00N 46°06' W 060°12'0 0.0 1031.7 2.0-3.5
2017-Nov-12 20:00N 46°06' W 060°12'0 0.0 1031.1 2.6-3.6
2017-Nov-12 18:00N 46°06' W 060°12'0 0.0 1031.0 3.2-4.3
2017-Nov-12 17:00N 46°06' W 060°12'0 0.0 1031.3 3.1-4.1
2017-Nov-12 16:00N 46°06' W 060°12'0 0.0 1031.3 3.3-4.0
2017-Nov-12 15:00N 46°06' W 060°12'0 0.0 1031.9 2.6-3.9
2017-Nov-12 14:00N 46°06' W 060°12'0 0.0 1032.2 2.4-4.1
2017-Nov-12 13:00N 46°06' W 060°12'0 0.0 1032.1 1.4-3.6
2017-Nov-12 12:00N 46°06' W 060°12'   1032.1 0.6-4.0
Track history (hours):
 
Tides and Currents Weather Stations Pressure Air Temp Water Temp Dewpoint Dewpoint Depression Visibility Wind Speed Wind Dir Waves Ship Positions

Dara Desgagnes

Last reported at 2017-Nov-22 12:00 UTC. Time now 2017-Nov-22 13:11 UTC.
Position N 48°30' W 068°30'.

Length 124 m; draft 5.3 m.

Type: Ship. MMSI: 316095000.

Barometer 1012.9 mb
Air temperature 2.0 ° C
Dewpoint -2.3 ° C

Date/timePositionNaut miles runAvg speedWind from/ knotsBaromVisibWave heightAir tempDewpointWater temp
2017-Nov-22 12:00N 48°30' W 068°30'0 0.0 1012.9 2.0-2.3
2017-Nov-22 11:00N 48°30' W 068°30'0 0.0 1012.3 1.8-2.5
2017-Nov-22 10:00N 48°30' W 068°30'0 0.0 1011.9 1.5-2.0
2017-Nov-22 09:00N 48°30' W 068°30'0 0.0 1011.2 1.5-2.8
2017-Nov-22 08:00N 48°30' W 068°30'0 0.0 1011.0 1.6-3.1
2017-Nov-22 07:00N 48°30' W 068°30'0 0.0 1011.0 1.6-3.1
2017-Nov-22 06:00N 48°30' W 068°30'0 0.0 1010.4 1.5-3.3
2017-Nov-22 05:00N 48°30' W 068°30'0 0.0 1009.4 2.1-3.5
2017-Nov-22 04:00N 48°30' W 068°30'0 0.0 1010.3 1.7-3.7
2017-Nov-22 03:00N 48°30' W 068°30'0 0.0 1010.7 1.0-4.4
2017-Nov-22 02:00N 48°30' W 068°30'0 0.0 1010.4 0.1-5.1
2017-Nov-22 01:00N 48°30' W 068°30'0 0.0 1010.6 -0.4-6.0
2017-Nov-22 00:00N 48°30' W 068°30'0 0.0 1010.7 -1.0-6.5
2017-Nov-21 23:00N 48°30' W 068°30'0 0.0 1010.2 -1.2-6.2 5.6
2017-Nov-21 22:00N 48°30' W 068°30'0 0.0 1009.8 -0.6-6.1 4.8
2017-Nov-21 21:00N 48°30' W 068°30'0 0.0 1009.8 -1.3-6.7 4.5
2017-Nov-21 20:00N 48°30' W 068°30'4 4.0 320 / 41010.1 -1.1-6.8 5.0
2017-Nov-21 19:00N 48°30' W 068°36'0 0.0 1010.4 -3.1-8.7
2017-Nov-21 18:00N 48°30' W 068°36'0 0.0 160 / 11011.5 -4.6-10.2
2017-Nov-21 17:00N 48°30' W 068°36'0 0.0 180 / 11012.4 -5.5-11.0
2017-Nov-21 16:00N 48°30' W 068°36'0 0.0 190 / 11013.3 -6.2-11.4
2017-Nov-21 15:00N 48°30' W 068°36'0 0.0 180 / 11014.8 -6.7-11.6 5.1
2017-Nov-21 14:00N 48°30' W 068°36'0 0.0 190 / 11014.5 -8.0-12.2 5.2
2017-Nov-21 13:00N 48°30' W 068°36'0 0.0 150 / 11014.3 -6.5-10.9 5.5
2017-Nov-21 12:00N 48°30' W 068°36'4 4.0 230 / 11014.1 -6.7-11.7 5.4
2017-Nov-21 11:00N 48°30' W 068°30'0 0.0 260 / 11014.0 -7.2-13.3
2017-Nov-21 10:00N 48°30' W 068°30'0 0.0 260 / 11013.4 -7.4-13.4
2017-Nov-21 09:00N 48°30' W 068°30'0 0.0 270 / 11012.7 -7.4-13.4
2017-Nov-21 08:00N 48°30' W 068°30'0 0.0 1012.7 -7.5-13.4
2017-Nov-21 07:00N 48°30' W 068°30'0 0.0 1012.0 -7.3-13.1
2017-Nov-21 06:00N 48°30' W 068°30'0 0.0 260 / 11011.5 -7.3-13.3
2017-Nov-21 05:00N 48°30' W 068°30'0 0.0 270 / 11010.6 -7.2-13.2
2017-Nov-21 04:00N 48°30' W 068°30'0 0.0 260 / 11009.7 -7.1-13.0
2017-Nov-21 03:00N 48°30' W 068°30'0 0.0 270 / 11008.8 -6.8-12.3
2017-Nov-21 02:00N 48°30' W 068°30'0 0.0 270 / 11008.2 -6.5-12.0
2017-Nov-21 01:00N 48°30' W 068°30'0 0.0 260 / 11007.9 -6.6-12.2
2017-Nov-21 00:00N 48°30' W 068°30'0 0.0 260 / 21006.5 -6.6-11.8
2017-Nov-20 23:00N 48°30' W 068°30'0 0.0 260 / 21005.2 -6.4-11.8
2017-Nov-20 22:00N 48°30' W 068°30'0 0.0 260 / 21004.0 -6.3-11.1
2017-Nov-20 21:00N 48°30' W 068°30'0 0.0 250 / 31002.3 -6.0-10.1
2017-Nov-20 20:00N 48°30' W 068°30'0 0.0 250 / 21001.3 -5.9-9.8
2017-Nov-20 19:00N 48°30' W 068°30'0 0.0 240 / 21000.6 -6.0-9.6
2017-Nov-20 18:00N 48°30' W 068°30'0 0.0 250 / 31000.3 -6.1-10.4
2017-Nov-20 17:00N 48°30' W 068°30'0 0.0 250 / 2999.6 -6.2-9.3 5.8
2017-Nov-20 16:00N 48°30' W 068°30'0 0.0 250 / 2999.5 -5.5-9.5
2017-Nov-20 15:00N 48°30' W 068°30'0 0.0 250 / 2998.7 -5.6-10.4
2017-Nov-20 14:00N 48°30' W 068°30'0 0.0 250 / 2998.3 -5.4-10.5
2017-Nov-20 13:00N 48°30' W 068°30'0 0.0 240 / 1998.2 -5.2-10.4
2017-Nov-20 12:00N 48°30' W 068°30'0 0.0 240 / 1997.1 -5.0-10.1
2017-Nov-20 11:00N 48°30' W 068°30'0 0.0 250 / 1995.5 -4.8-9.6
2017-Nov-20 10:00N 48°30' W 068°30'0 0.0 240 / 2993.8 -4.4-8.7
2017-Nov-20 09:00N 48°30' W 068°30'0 0.0 240 / 3992.3 -3.7-8.1
2017-Nov-20 08:00N 48°30' W 068°30'0 0.0 240 / 3991.4 -2.9-7.0
2017-Nov-20 07:00N 48°30' W 068°30'0 0.0 250 / 2990.4 -1.2-6.5
2017-Nov-20 06:00N 48°30' W 068°30'0 0.0 240 / 3989.0 -1.3-4.8
2017-Nov-20 05:00N 48°30' W 068°30'0 0.0 240 / 3987.8 -0.8-4.6 5.8
2017-Nov-20 04:00N 48°30' W 068°30'0 0.0 220 / 2986.7 -0.2-3.8
2017-Nov-20 03:00N 48°30' W 068°30'7711.0 210 / 2985.5 0.5-2.7 5.8
2017-Nov-19 20:00N 47°42' W 070°00'1414.5 230 / 11982.9 1.5 0.8 6.5
2017-Nov-19 19:00N 47°30' W 070°12'1010.1 220 / 9982.3 2.3 1.3 6.8
2017-Nov-19 18:00N 47°24' W 070°24'7 7.2 250 / 10982.4 1.7 1.3 7.4
2017-Nov-19 17:00N 47°18' W 070°30'1514.5 210 / 11982.7 2.9 2.7 7.6
2017-Nov-19 16:00N 47°06' W 070°42'1514.5 210 / 11982.9 2.2 2.0 7.7
2017-Nov-19 15:00N 46°54' W 070°54'1413.7 230 / 11983.3 2.1 1.9 7.8
2017-Nov-19 14:00N 46°48' W 071°12'0 0.0 200 / 6985.0 2.1 0.7 7.7
2017-Nov-19 13:00N 46°48' W 071°12'0 0.0 986.2 2.9 0.7
2017-Nov-19 12:00N 46°48' W 071°12'0 0.0 987.5 3.1 0.6
2017-Nov-19 11:00N 46°48' W 071°12'0 0.0 988.3 2.4 0.1
2017-Nov-19 10:00N 46°48' W 071°12'0 0.0 989.9 2.7 0.3
2017-Nov-19 09:00N 46°48' W 071°12'0 0.0 991.3 1.6-0.1
2017-Nov-19 08:00N 46°48' W 071°12'0 0.0 992.8 1.5-0.8
2017-Nov-19 07:00N 46°48' W 071°12'0 0.0 995.1 1.4-2.0
2017-Nov-19 06:00N 46°48' W 071°12'0 0.0 996.4 3.1-2.4
2017-Nov-19 05:00N 46°48' W 071°12'0 0.0 997.8 1.8-2.4
2017-Nov-19 04:00N 46°48' W 071°12'0 0.0 999.1 2.8-2.2
2017-Nov-19 03:00N 46°48' W 071°12'0 0.0 1000.6 2.3-2.6
2017-Nov-19 02:00N 46°48' W 071°12'0 0.0 1001.6 2.5-2.7
2017-Nov-19 01:00N 46°48' W 071°12'0 0.0 1002.6 3.1-2.8
2017-Nov-19 00:00N 46°48' W 071°12'0 0.0 1003.1 1.8-3.2
2017-Nov-18 23:00N 46°48' W 071°12'0 0.0 1003.5 0.1-4.2
2017-Nov-18 22:00N 46°48' W 071°12'0 0.0 1004.5 0.2-3.6
2017-Nov-18 21:00N 46°48' W 071°12'0 0.0 1004.9 -1.7-6.7
2017-Nov-18 20:00N 46°48' W 071°12'0 0.0 1006.4 -3.0-7.6
2017-Nov-18 19:00N 46°48' W 071°12'0 0.0 1007.9 -2.7-8.6
2017-Nov-18 18:00N 46°48' W 071°12'0 0.0 1009.0 -4.1-9.0 8.1
2017-Nov-18 17:00N 46°48' W 071°12'0 0.0 1010.1 -3.8-8.5 7.9
2017-Nov-18 16:00N 46°48' W 071°12'4 4.1 020 / 51011.5 -5.7-8.9 7.7
2017-Nov-18 15:00N 46°48' W 071°06'1010.2 080 / 71012.5 -6.4-9.3 7.6
2017-Nov-18 14:00N 46°54' W 070°54'0 0.0 200 / 11013.5 -7.0-9.2
2017-Nov-18 13:00N 46°54' W 070°54'0 0.0 1014.9 -7.0-8.9
2017-Nov-18 12:00N 46°54' W 070°54'0 0.0 1014.5 -7.5-9.3
2017-Nov-18 11:00N 46°54' W 070°54'0 0.0 1013.8 -7.2-9.0 7.8
2017-Nov-18 10:00N 46°54' W 070°54'0 0.0 1013.7 -7.1-9.1 8.2
2017-Nov-18 09:00N 46°54' W 070°54'7 7.3 070 / 91012.9 -6.7-9.1 7.8
2017-Nov-18 08:00N 47°00' W 070°48'1514.5 030 / 131012.0 -5.0-8.7 7.9
2017-Nov-18 07:00N 47°12' W 070°36'1414.5 030 / 141012.3 -2.7-7.9 7.8
2017-Nov-18 06:00N 47°24' W 070°24'1414.5 070 / 131012.1 -4.6-10.9 7.1
2017-Nov-18 05:00N 47°36' W 070°12'1413.5 040 / 121010.7 -4.9-10.3 6.1
2017-Nov-18 04:00N 47°42' W 069°54'1312.7 040 / 121012.6 -3.8-10.0 6.0
2017-Nov-18 03:00N 47°54' W 069°48'1010.0 030 / 111011.9 -4.8-10.1 5.9
2017-Nov-18 02:00N 48°00' W 069°36'1312.7 030 / 81007.4 -5.0-8.9 5.2
2017-Nov-18 01:00N 48°12' W 069°30'7 7.2 030 / 131009.1 -4.9-8.5 4.8
2017-Nov-18 00:00N 48°18' W 069°24'1716.9 050 / 111008.7 -3.1-7.8 4.9
2017-Nov-17 23:00N 48°30' W 069°06'1010.0 050 / 121006.1 -2.4-6.4 5.1
2017-Nov-17 22:00N 48°36' W 068°54'1313.3 050 / 101004.0 -2.0-5.2 5.2
2017-Nov-17 21:00N 48°42' W 068°36'1313.3 050 / 121001.6 -0.9-4.0 5.4
2017-Nov-17 20:00N 48°48' W 068°18'10 9.9 060 / 121000.3 -0.2-1.6 5.1
2017-Nov-17 19:00N 48°54' W 068°06'1313.3 050 / 131002.0 1.7 1.6 5.4
2017-Nov-17 18:00N 49°00' W 067°48'1716.8 060 / 131002.0 0.7 0.6 5.1
2017-Nov-17 17:00N 49°12' W 067°30'1211.8 050 / 131001.7 0.5 0.4 5.1
2017-Nov-17 16:00N 49°12' W 067°12'1313.2 070 / 131001.5 0.5 0.3 5.0
2017-Nov-17 15:00N 49°18' W 066°54'1716.7 070 / 141002.0 0.7 0.4 5.2
2017-Nov-17 14:00N 49°24' W 066°30'1211.7 070 / 131002.3 1.5 0.5 5.6
2017-Nov-17 13:00N 49°24' W 066°12'1313.2 080 / 141002.6 7.2 4.0 5.5
2017-Nov-17 12:00N 49°30' W 065°54'1716.7 080 / 141002.8 3.5 3.2 6.4
2017-Nov-17 11:00N 49°24' W 065°30'1211.7 090 / 141003.3 3.2 3.0 6.1
2017-Nov-17 10:00N 49°24' W 065°12'1313.2 110 / 131003.5 3.3 2.9 6.1
2017-Nov-17 09:00N 49°18' W 064°54'10 9.9 120 / 91003.8 3.7 2.7 6.2
2017-Nov-17 08:00N 49°12' W 064°42'8 7.8 110 / 101005.6 9.7 4.9 6.5
2017-Nov-17 07:00N 49°12' W 064°30'1312.6 130 / 101006.6 6.9 5.1 6.5
2017-Nov-17 06:00N 49°00' W 064°24'10 9.9 140 / 101008.0 8.1 5.0 6.7
2017-Nov-17 05:00N 48°54' W 064°12'18 9.2 140 / 101008.5 4.1 3.6 6.9
2017-Nov-17 03:00N 48°36' W 064°06'6 6.0 170 / 101010.3 3.9 3.4 6.8
2017-Nov-17 02:00N 48°30' W 064°06'1212.0 190 / 91011.1 4.3 3.2 7.5
2017-Nov-17 01:00N 48°18' W 064°06'7 7.2 190 / 101011.7 4.5 3.1 7.7
2017-Nov-17 00:00N 48°12' W 064°12'1818.4 190 / 101012.1 4.7 3.3 8.0
2017-Nov-16 23:00N 47°54' W 064°18'7 7.2 200 / 101011.9 5.2 3.4 8.5
2017-Nov-16 22:00N 47°48' W 064°24'6 6.0 200 / 101013.4 5.1 3.2 9.0
2017-Nov-16 21:00N 47°42' W 064°24'7 7.2 200 / 91014.1 5.2 2.7 9.4
2017-Nov-16 20:00N 47°36' W 064°30'1312.7 200 / 101014.4 4.8 2.1 9.5
2017-Nov-16 19:00N 47°24' W 064°36'7 7.2 200 / 101014.7 4.8 1.7 9.6
2017-Nov-16 18:00N 47°18' W 064°42'1514.5 200 / 101015.3 4.6 1.7 9.5
2017-Nov-16 17:00N 47°06' W 064°54'4 4.1 230 / 111014.8 3.9 1.0 7.6
2017-Nov-16 16:00N 47°06' W 065°00'1212.3 230 / 91016.5 3.3 0.4 6.3
2017-Nov-16 15:00N 47°06' W 065°18'1010.1 220 / 101018.1 1.8-1.2 6.4
2017-Nov-16 14:00N 47°00' W 065°30'0 0.0 220 / 51019.1 0.2-2.2 5.4
2017-Nov-16 13:00N 47°00' W 065°30'0 0.0 1019.9 -0.4-3.0
2017-Nov-16 12:00N 47°00' W 065°30'0 0.0 1020.3 -0.7-3.4
2017-Nov-16 11:00N 47°00' W 065°30'0 0.0 1020.4 -1.1-3.8
2017-Nov-16 10:00N 47°00' W 065°30'0 0.0 1020.6 -1.7-4.2
2017-Nov-16 09:00N 47°00' W 065°30'0 0.0 1021.6 -2.1-3.9
2017-Nov-16 08:00N 47°00' W 065°30'0 0.0 1022.3 -2.2-3.9
2017-Nov-16 07:00N 47°00' W 065°30'0 0.0 1022.5 -2.0-3.7
2017-Nov-16 06:00N 47°00' W 065°30'0 0.0 1023.0 -3.0-4.2
2017-Nov-16 05:00N 47°00' W 065°30'0 0.0 1022.9 -3.9-5.2
2017-Nov-16 04:00N 47°00' W 065°30'0 0.0 1023.2 -3.5-5.5
2017-Nov-16 03:00N 47°00' W 065°30'0 0.0 1024.6 -3.6-5.7
2017-Nov-16 02:00N 47°00' W 065°30'0 0.0 1025.1 -2.7-5.5
2017-Nov-16 01:00N 47°00' W 065°30'0 0.0 1025.5 -2.1-5.8
2017-Nov-16 00:00N 47°00' W 065°30'0 0.0 1025.5 -1.1-5.0
2017-Nov-15 23:00N 47°00' W 065°30'0 0.0 1024.9 -1.0-5.9
2017-Nov-15 22:00N 47°00' W 065°30'0 0.0 1024.7 -0.3-6.0 6.0
2017-Nov-15 21:00N 47°00' W 065°30'0 0.0 1024.7 0.3-6.3 6.1
2017-Nov-15 20:00N 47°00' W 065°30'0 0.0 1025.0 2.1-6.5 6.5
2017-Nov-15 19:00N 47°00' W 065°30'1010.1 060 / 71025.4 1.0-7.1 6.2
2017-Nov-15 18:00N 47°06' W 065°18'1212.3 060 / 101025.9 -0.2-6.6 6.9
2017-Nov-15 17:00N 47°06' W 065°00'4 4.1 130 / 101026.2 -0.5-5.9 7.6
2017-Nov-15 16:00N 47°06' W 064°54'0 0.0 1027.1 -0.7-5.0
2017-Nov-15 15:00N 47°06' W 064°54'0 0.0 1027.8 -0.6-4.9
2017-Nov-15 14:00N 47°06' W 064°54'0 0.0 1027.6 -1.0-4.6
2017-Nov-15 13:00N 47°06' W 064°54'0 0.0 1027.4 -1.0-4.8
2017-Nov-15 12:00N 47°06' W 064°54'0 0.0 1027.2 -0.7-3.9
2017-Nov-15 11:00N 47°06' W 064°54'0 0.0 1026.8 -0.4-4.0
2017-Nov-15 10:00N 47°06' W 064°54'0 0.0 1026.8 -0.2-3.7
2017-Nov-15 09:00N 47°06' W 064°54'0 0.0 1026.6 0.5-4.9
2017-Nov-15 08:00N 47°06' W 064°54'0 0.0 1026.7 0.6-5.2
2017-Nov-15 07:00N 47°06' W 064°54'0 0.0 1026.9 0.7-4.8
2017-Nov-15 06:00N 47°06' W 064°54'0 0.0 1026.7 0.7-5.3
2017-Nov-15 05:00N 47°06' W 064°54'0 0.0 1027.1 0.7-5.4
2017-Nov-15 04:00N 47°06' W 064°54'0 0.0 1027.3 0.8-5.5
2017-Nov-15 03:00N 47°06' W 064°54'0 0.0 1027.4 0.9-5.0
2017-Nov-15 02:00N 47°06' W 064°54'0 0.0 1027.8 0.8-5.3
2017-Nov-15 01:00N 47°06' W 064°54'0 0.0 1027.4 0.7-5.3
2017-Nov-15 00:00N 47°06' W 064°54'0 0.0 1027.3 0.5-5.6
2017-Nov-14 23:00N 47°06' W 064°54'0 0.0 1027.3 0.5-5.8
2017-Nov-14 22:00N 47°06' W 064°54'0 0.0 1027.5 0.4-5.8
2017-Nov-14 21:00N 47°06' W 064°54'0 0.0 1027.7 0.3-5.7
2017-Nov-14 20:00N 47°06' W 064°54'0 0.0 1027.6 0.3-5.7
2017-Nov-14 19:00N 47°06' W 064°54'0 0.0 1027.5 0.6-5.0
2017-Nov-14 18:00N 47°06' W 064°54'0 0.0 1027.4 0.5-5.5
2017-Nov-14 17:00N 47°06' W 064°54'0 0.0 020 / 11027.4 1.2-4.0
2017-Nov-14 16:00N 47°06' W 064°54'0 0.0 1027.5 1.5-3.3
2017-Nov-14 15:00N 47°06' W 064°54'0 0.0 010 / 11027.5 1.7-2.7
2017-Nov-14 14:00N 47°06' W 064°54'0 0.0 020 / 11027.4 1.8-2.3
2017-Nov-14 13:00N 47°06' W 064°54'0 0.0 010 / 11026.8 1.9-1.5
2017-Nov-14 12:00N 47°06' W 064°54'0 0.0 010 / 11026.5 2.3-0.6
2017-Nov-14 11:00N 47°06' W 064°54'0 0.0 1026.6 2.2-0.7
2017-Nov-14 10:00N 47°06' W 064°54'0 0.0 1026.4 2.6-0.8
2017-Nov-14 09:00N 47°06' W 064°54'0 0.0 1026.1 2.0-2.0
2017-Nov-14 08:00N 47°06' W 064°54'0 0.0 1025.8 1.5-3.4
2017-Nov-14 07:00N 47°06' W 064°54'0 0.0 1025.8 2.0-4.3
2017-Nov-14 06:00N 47°06' W 064°54'0 0.0 1025.7 2.7-4.5
2017-Nov-14 05:00N 47°06' W 064°54'0 0.0 1026.5 2.6-5.3
2017-Nov-14 04:00N 47°06' W 064°54'0 0.0 1027.0 2.7-6.5
2017-Nov-14 03:00N 47°06' W 064°54'0 0.0 1027.2 2.5-6.6
2017-Nov-14 02:00N 47°06' W 064°54'0 0.0 1027.2 2.2-4.4
2017-Nov-14 01:00N 47°06' W 064°54'0 0.0 1027.6 2.6-4.6
2017-Nov-14 00:00N 47°06' W 064°54'0 0.0 1028.0 2.8-6.7
2017-Nov-13 23:00N 47°06' W 064°54'0 0.0 1027.5 1.9-4.1
2017-Nov-13 22:00N 47°06' W 064°54'0 0.0 1028.3 1.7-5.0 8.7
2017-Nov-13 21:00N 47°06' W 064°54'0 0.0 1028.1 2.4-6.7 9.4
2017-Nov-13 20:00N 47°06' W 064°54'4 4.1 090 / 11028.2 1.9-6.3 8.5
2017-Nov-13 19:00N 47°06' W 064°48'1212.3 090 / 101028.1 1.7-7.610.4
2017-Nov-13 18:00N 47°06' W 064°30'1212.3 090 / 111028.4 1.3-8.810.6
2017-Nov-13 17:00N 47°06' W 064°12'1212.3 090 / 111028.8 1.2-6.810.1
2017-Nov-13 16:00N 47°06' W 063°54'1212.3 090 / 111029.5 1.8-6.310.4
2017-Nov-13 15:00N 47°06' W 063°36'1212.3 090 / 111030.2 2.7-5.8 9.9
2017-Nov-13 14:00N 47°06' W 063°18'1616.3 090 / 111030.3 2.3-6.510.6
2017-Nov-13 13:00N 47°06' W 062°54'8 8.2 090 / 111030.5 2.1-6.210.6
2017-Nov-13 12:00N 47°06' W 062°42'1212.3 090 / 111030.6 2.3-5.910.0
2017-Nov-13 11:00N 47°06' W 062°24'1212.3 090 / 111030.4 2.5-5.610.7
2017-Nov-13 10:00N 47°06' W 062°06'1616.3 090 / 121030.2 2.6-4.810.4
2017-Nov-13 09:00N 47°06' W 061°42'1212.3 090 / 111030.5 2.8-5.310.5
2017-Nov-13 08:00N 47°06' W 061°24'1212.3 090 / 121030.7 2.7-5.310.4
2017-Nov-13 07:00N 47°06' W 061°06'1212.3 090 / 111030.6 2.9-3.410.3
2017-Nov-13 06:00N 47°06' W 060°48'8 8.2 090 / 111030.5 3.2-2.310.9
2017-Nov-13 05:00N 47°06' W 060°36'1212.3 090 / 101030.5 3.5-2.212.5
2017-Nov-13 04:00N 47°06' W 060°18'1312.7 150 / 101031.3 3.0-0.611.8
2017-Nov-13 03:00N 46°54' W 060°12'1212.0 170 / 121031.5 2.9-1.811.2
2017-Nov-13 02:00N 46°42' W 060°12'1312.7 170 / 131031.8 2.7-2.611.1
2017-Nov-13 01:00N 46°30' W 060°06'1312.7 180 / 111031.8 2.4-2.911.4
2017-Nov-13 00:00N 46°18' W 060°12'1212.0 210 / 91031.8 1.7-3.211.1
2017-Nov-12 23:00N 46°06' W 060°12'0 0.0 240 / 11031.7 0.8-3.7
2017-Nov-12 22:00N 46°06' W 060°12'0 0.0 1031.9 1.5-3.2
2017-Nov-12 21:00N 46°06' W 060°12'0 0.0 1031.7 2.0-3.5
2017-Nov-12 20:00N 46°06' W 060°12'0 0.0 1031.1 2.6-3.6
2017-Nov-12 18:00N 46°06' W 060°12'0 0.0 1031.0 3.2-4.3
2017-Nov-12 17:00N 46°06' W 060°12'0 0.0 1031.3 3.1-4.1
2017-Nov-12 16:00N 46°06' W 060°12'0 0.0 1031.3 3.3-4.0
2017-Nov-12 15:00N 46°06' W 060°12'0 0.0 1031.9 2.6-3.9
2017-Nov-12 14:00N 46°06' W 060°12'0 0.0 1032.2 2.4-4.1
2017-Nov-12 13:00N 46°06' W 060°12'0 0.0 1032.1 1.4-3.6
2017-Nov-12 12:00N 46°06' W 060°12'   1032.1 0.6-4.0

Dump ship's entire track history